Arickaree, Colorado
Current Conditions -  °F | °C
As of 10:55 AM on Sunday 21 Dec 2014 (Local Time) from KLIC Reporting Station
Clear Clear  
Wind Chill: 42°   Ceiling: Unl
Heat Index: 47°   Visibility: 10mi
Dew Point: 19°   Wind: 10mph
Humidity: 33%   Direction: 190°S
Pressure: 29.66"   Gusts: NA
Location:  39.6673°N, 103.47°W
Report Text: KLIC 211755Z AUTO 19009KT 10SM CLR 08/M07 A2966 RMK AO2 SLP033 T00831072 10083 21094 56024
Loading
Personal Weather Stations






























Interactive Weather Map New forecast layout! Learn more

10-Day Weather Forecast

Advertisements
Track Severe Weather on mobile